sensor_id;sensor_type;location;lat;lon;timestamp;P1;durP1;ratioP1;P2;durP2;ratioP2
72301;SDS011;60235;52.234;5.186;2022-10-31T00:02:24;10.98;;;3.88;;
72301;SDS011;60235;52.234;5.186;2022-10-31T00:04:50;10.15;;;3.85;;
72301;SDS011;60235;52.234;5.186;2022-10-31T00:07:16;10.57;;;4.07;;
72301;SDS011;60235;52.234;5.186;2022-10-31T00:09:42;10.57;;;3.95;;
72301;SDS011;60235;52.234;5.186;2022-10-31T00:12:08;11.75;;;3.88;;
72301;SDS011;60235;52.234;5.186;2022-10-31T00:14:34;13.43;;;4.40;;
72301;SDS011;60235;52.234;5.186;2022-10-31T00:17:00;11.77;;;3.47;;
72301;SDS011;60235;52.234;5.186;2022-10-31T00:19:26;10.27;;;3.63;;
72301;SDS011;60235;52.234;5.186;2022-10-31T00:21:52;10.40;;;4.03;;
72301;SDS011;60235;52.234;5.186;2022-10-31T00:24:18;11.43;;;4.00;;
72301;SDS011;60235;52.234;5.186;2022-10-31T00:26:44;10.80;;;3.63;;
72301;SDS011;60235;52.234;5.186;2022-10-31T00:29:10;12.70;;;3.65;;
72301;SDS011;60235;52.234;5.186;2022-10-31T00:31:37;10.18;;;3.53;;
72301;SDS011;60235;52.234;5.186;2022-10-31T00:34:03;13.48;;;4.07;;
72301;SDS011;60235;52.234;5.186;2022-10-31T00:36:29;11.35;;;4.05;;
72301;SDS011;60235;52.234;5.186;2022-10-31T00:38:55;18.17;;;3.80;;
72301;SDS011;60235;52.234;5.186;2022-10-31T00:41:21;13.45;;;4.00;;
72301;SDS011;60235;52.234;5.186;2022-10-31T00:43:47;8.18;;;3.45;;
72301;SDS011;60235;52.234;5.186;2022-10-31T00:46:13;9.48;;;3.42;;
72301;SDS011;60235;52.234;5.186;2022-10-31T00:48:39;13.63;;;3.75;;
72301;SDS011;60235;52.234;5.186;2022-10-31T00:51:05;14.10;;;4.38;;
72301;SDS011;60235;52.234;5.186;2022-10-31T00:53:31;11.70;;;4.03;;
72301;SDS011;60235;52.234;5.186;2022-10-31T00:55:57;11.98;;;4.30;;
72301;SDS011;60235;52.234;5.186;2022-10-31T00:58:23;10.88;;;4.03;;
72301;SDS011;60235;52.234;5.186;2022-10-31T01:00:49;11.50;;;3.75;;
72301;SDS011;60235;52.234;5.186;2022-10-31T01:03:20;13.27;;;3.83;;
72301;SDS011;60235;52.234;5.186;2022-10-31T01:05:54;12.60;;;3.80;;
72301;SDS011;60235;52.234;5.186;2022-10-31T01:08:20;11.20;;;3.45;;
72301;SDS011;60235;52.234;5.186;2022-10-31T01:10:46;12.18;;;3.72;;
72301;SDS011;60235;52.234;5.186;2022-10-31T01:13:12;11.07;;;4.05;;
72301;SDS011;60235;52.234;5.186;2022-10-31T01:15:38;10.40;;;4.45;;
72301;SDS011;60235;52.234;5.186;2022-10-31T01:18:04;12.27;;;4.18;;
72301;SDS011;60235;52.234;5.186;2022-10-31T01:20:30;12.23;;;3.90;;
72301;SDS011;60235;52.234;5.186;2022-10-31T01:22:56;9.23;;;3.72;;
72301;SDS011;60235;52.234;5.186;2022-10-31T01:25:22;11.57;;;4.07;;
72301;SDS011;60235;52.234;5.186;2022-10-31T01:27:48;10.05;;;4.18;;
72301;SDS011;60235;52.234;5.186;2022-10-31T01:30:14;10.65;;;4.30;;
72301;SDS011;60235;52.234;5.186;2022-10-31T01:32:40;11.30;;;3.90;;
72301;SDS011;60235;52.234;5.186;2022-10-31T01:35:06;11.85;;;4.25;;
72301;SDS011;60235;52.234;5.186;2022-10-31T01:37:32;11.10;;;3.63;;
72301;SDS011;60235;52.234;5.186;2022-10-31T01:39:58;10.48;;;4.20;;
72301;SDS011;60235;52.234;5.186;2022-10-31T01:42:25;13.63;;;4.53;;
72301;SDS011;60235;52.234;5.186;2022-10-31T01:44:53;13.23;;;5.15;;
72301;SDS011;60235;52.234;5.186;2022-10-31T01:47:21;11.63;;;4.60;;
72301;SDS011;60235;52.234;5.186;2022-10-31T01:49:52;9.80;;;4.30;;
72301;SDS011;60235;52.234;5.186;2022-10-31T01:54:49;12.25;;;4.35;;
72301;SDS011;60235;52.234;5.186;2022-10-31T01:57:17;13.02;;;4.40;;
72301;SDS011;60235;52.234;5.186;2022-10-31T01:59:45;8.80;;;3.70;;
72301;SDS011;60235;52.234;5.186;2022-10-31T02:02:12;12.73;;;5.05;;
72301;SDS011;60235;52.234;5.186;2022-10-31T02:04:38;12.00;;;4.90;;
72301;SDS011;60235;52.234;5.186;2022-10-31T02:07:06;10.85;;;4.68;;
72301;SDS011;60235;52.234;5.186;2022-10-31T02:09:33;13.35;;;5.55;;
72301;SDS011;60235;52.234;5.186;2022-10-31T02:12:00;10.73;;;4.45;;
72301;SDS011;60235;52.234;5.186;2022-10-31T02:14:26;11.65;;;4.30;;
72301;SDS011;60235;52.234;5.186;2022-10-31T02:16:53;10.00;;;4.07;;
72301;SDS011;60235;52.234;5.186;2022-10-31T02:19:23;11.30;;;4.22;;
72301;SDS011;60235;52.234;5.186;2022-10-31T02:22:26;12.95;;;4.38;;
72301;SDS011;60235;52.234;5.186;2022-10-31T02:24:46;12.75;;;5.05;;
72301;SDS011;60235;52.234;5.186;2022-10-31T02:30:06;10.57;;;4.40;;
72301;SDS011;60235;52.234;5.186;2022-10-31T02:40:10;16.98;;;5.38;;
72301;SDS011;60235;52.234;5.186;2022-10-31T02:47:45;13.23;;;5.25;;
72301;SDS011;60235;52.234;5.186;2022-10-31T02:50:26;14.35;;;5.93;;
72301;SDS011;60235;52.234;5.186;2022-10-31T02:52:54;13.93;;;6.13;;
72301;SDS011;60235;52.234;5.186;2022-10-31T02:58:08;16.67;;;5.97;;
72301;SDS011;60235;52.234;5.186;2022-10-31T03:00:37;13.10;;;5.90;;
72301;SDS011;60235;52.234;5.186;2022-10-31T03:03:12;13.88;;;5.85;;
72301;SDS011;60235;52.234;5.186;2022-10-31T03:11:07;15.30;;;5.70;;
72301;SDS011;60235;52.234;5.186;2022-10-31T03:13:46;14.95;;;6.70;;
72301;SDS011;60235;52.234;5.186;2022-10-31T03:16:15;15.40;;;6.13;;
72301;SDS011;60235;52.234;5.186;2022-10-31T03:18:48;13.93;;;5.93;;
72301;SDS011;60235;52.234;5.186;2022-10-31T03:21:29;13.70;;;5.90;;
72301;SDS011;60235;52.234;5.186;2022-10-31T03:23:55;16.38;;;6.30;;
72301;SDS011;60235;52.234;5.186;2022-10-31T03:26:22;18.48;;;7.10;;
72301;SDS011;60235;52.234;5.186;2022-10-31T03:28:50;15.23;;;5.82;;
72301;SDS011;60235;52.234;5.186;2022-10-31T03:31:17;13.68;;;5.90;;
72301;SDS011;60235;52.234;5.186;2022-10-31T03:33:44;15.73;;;6.68;;
72301;SDS011;60235;52.234;5.186;2022-10-31T03:36:11;13.65;;;6.30;;
72301;SDS011;60235;52.234;5.186;2022-10-31T03:38:40;13.43;;;6.22;;
72301;SDS011;60235;52.234;5.186;2022-10-31T03:41:07;14.40;;;6.45;;
72301;SDS011;60235;52.234;5.186;2022-10-31T03:43:37;17.75;;;6.90;;
72301;SDS011;60235;52.234;5.186;2022-10-31T03:46:05;17.35;;;7.45;;
72301;SDS011;60235;52.234;5.186;2022-10-31T03:48:32;15.85;;;7.13;;
72301;SDS011;60235;52.234;5.186;2022-10-31T03:51:05;18.08;;;6.90;;
72301;SDS011;60235;52.234;5.186;2022-10-31T03:53:36;17.30;;;6.63;;
72301;SDS011;60235;52.234;5.186;2022-10-31T03:58:34;12.18;;;6.30;;
72301;SDS011;60235;52.234;5.186;2022-10-31T04:01:03;16.17;;;6.60;;
72301;SDS011;60235;52.234;5.186;2022-10-31T04:03:32;16.08;;;6.50;;
72301;SDS011;60235;52.234;5.186;2022-10-31T04:05:59;13.32;;;5.88;;
72301;SDS011;60235;52.234;5.186;2022-10-31T04:08:28;12.57;;;5.65;;
72301;SDS011;60235;52.234;5.186;2022-10-31T04:10:56;12.63;;;5.45;;
72301;SDS011;60235;52.234;5.186;2022-10-31T04:13:24;15.48;;;6.60;;
72301;SDS011;60235;52.234;5.186;2022-10-31T04:15:51;11.98;;;5.82;;
72301;SDS011;60235;52.234;5.186;2022-10-31T04:18:18;14.20;;;6.38;;
72301;SDS011;60235;52.234;5.186;2022-10-31T04:20:44;14.65;;;6.32;;
72301;SDS011;60235;52.234;5.186;2022-10-31T04:23:22;16.58;;;6.47;;
72301;SDS011;60235;52.234;5.186;2022-10-31T04:25:48;15.13;;;6.75;;
72301;SDS011;60235;52.234;5.186;2022-10-31T04:28:14;14.70;;;6.45;;
72301;SDS011;60235;52.234;5.186;2022-10-31T04:30:40;17.60;;;7.20;;
72301;SDS011;60235;52.234;5.186;2022-10-31T04:33:06;15.05;;;6.95;;
72301;SDS011;60235;52.234;5.186;2022-10-31T04:35:32;16.23;;;6.95;;
72301;SDS011;60235;52.234;5.186;2022-10-31T04:37:58;17.13;;;7.70;;
72301;SDS011;60235;52.234;5.186;2022-10-31T04:40:24;15.95;;;6.95;;
72301;SDS011;60235;52.234;5.186;2022-10-31T04:42:50;14.80;;;7.15;;
72301;SDS011;60235;52.234;5.186;2022-10-31T04:45:16;15.60;;;7.07;;
72301;SDS011;60235;52.234;5.186;2022-10-31T04:47:42;16.17;;;7.13;;
72301;SDS011;60235;52.234;5.186;2022-10-31T04:50:08;16.00;;;6.93;;
72301;SDS011;60235;52.234;5.186;2022-10-31T04:52:41;16.23;;;7.18;;
72301;SDS011;60235;52.234;5.186;2022-10-31T04:55:07;15.68;;;7.13;;
72301;SDS011;60235;52.234;5.186;2022-10-31T04:57:39;16.30;;;7.25;;
72301;SDS011;60235;52.234;5.186;2022-10-31T05:00:06;15.77;;;6.80;;
72301;SDS011;60235;52.234;5.186;2022-10-31T05:02:32;15.00;;;7.47;;
72301;SDS011;60235;52.234;5.186;2022-10-31T05:04:58;13.95;;;6.25;;
72301;SDS011;60235;52.234;5.186;2022-10-31T05:07:24;17.40;;;7.57;;
72301;SDS011;60235;52.234;5.186;2022-10-31T05:09:50;15.82;;;6.78;;
72301;SDS011;60235;52.234;5.186;2022-10-31T05:12:16;16.63;;;6.88;;
72301;SDS011;60235;52.234;5.186;2022-10-31T05:14:42;16.02;;;7.15;;
72301;SDS011;60235;52.234;5.186;2022-10-31T05:17:08;16.75;;;7.30;;
72301;SDS011;60235;52.234;5.186;2022-10-31T05:19:33;12.25;;;6.20;;
72301;SDS011;60235;52.234;5.186;2022-10-31T05:21:59;17.80;;;7.68;;
72301;SDS011;60235;52.234;5.186;2022-10-31T05:24:25;17.83;;;7.22;;
72301;SDS011;60235;52.234;5.186;2022-10-31T05:26:51;14.23;;;6.97;;
72301;SDS011;60235;52.234;5.186;2022-10-31T05:29:17;15.77;;;6.85;;
72301;SDS011;60235;52.234;5.186;2022-10-31T05:31:43;15.70;;;7.35;;
72301;SDS011;60235;52.234;5.186;2022-10-31T05:34:09;15.07;;;7.10;;
72301;SDS011;60235;52.234;5.186;2022-10-31T05:36:35;16.10;;;8.23;;
72301;SDS011;60235;52.234;5.186;2022-10-31T05:39:01;15.95;;;7.32;;
72301;SDS011;60235;52.234;5.186;2022-10-31T05:41:27;17.05;;;7.25;;
72301;SDS011;60235;52.234;5.186;2022-10-31T05:43:53;17.25;;;8.13;;
72301;SDS011;60235;52.234;5.186;2022-10-31T05:46:19;18.63;;;8.63;;
72301;SDS011;60235;52.234;5.186;2022-10-31T05:48:45;18.27;;;7.70;;
72301;SDS011;60235;52.234;5.186;2022-10-31T05:51:12;16.88;;;8.00;;
72301;SDS011;60235;52.234;5.186;2022-10-31T05:53:38;15.82;;;7.22;;
72301;SDS011;60235;52.234;5.186;2022-10-31T05:56:04;16.15;;;8.13;;
72301;SDS011;60235;52.234;5.186;2022-10-31T05:58:30;18.48;;;7.30;;
72301;SDS011;60235;52.234;5.186;2022-10-31T06:00:56;16.05;;;7.80;;
72301;SDS011;60235;52.234;5.186;2022-10-31T06:03:22;16.70;;;7.28;;
72301;SDS011;60235;52.234;5.186;2022-10-31T06:05:48;17.92;;;7.45;;
72301;SDS011;60235;52.234;5.186;2022-10-31T06:08:14;18.83;;;8.13;;
72301;SDS011;60235;52.234;5.186;2022-10-31T06:10:40;15.93;;;8.05;;
72301;SDS011;60235;52.234;5.186;2022-10-31T06:13:05;16.73;;;7.45;;
72301;SDS011;60235;52.234;5.186;2022-10-31T06:15:32;16.83;;;7.65;;
72301;SDS011;60235;52.234;5.186;2022-10-31T06:18:02;14.05;;;6.85;;
72301;SDS011;60235;52.234;5.186;2022-10-31T06:20:28;16.17;;;7.07;;
72301;SDS011;60235;52.234;5.186;2022-10-31T06:22:54;19.55;;;7.15;;
72301;SDS011;60235;52.234;5.186;2022-10-31T06:25:20;16.65;;;7.57;;
72301;SDS011;60235;52.234;5.186;2022-10-31T06:27:46;17.90;;;7.72;;
72301;SDS011;60235;52.234;5.186;2022-10-31T06:30:12;18.20;;;7.75;;
72301;SDS011;60235;52.234;5.186;2022-10-31T06:32:38;16.70;;;8.30;;
72301;SDS011;60235;52.234;5.186;2022-10-31T06:35:04;16.33;;;7.70;;
72301;SDS011;60235;52.234;5.186;2022-10-31T06:37:30;17.80;;;8.75;;
72301;SDS011;60235;52.234;5.186;2022-10-31T06:39:56;19.38;;;8.68;;
72301;SDS011;60235;52.234;5.186;2022-10-31T06:42:22;19.27;;;8.15;;
72301;SDS011;60235;52.234;5.186;2022-10-31T06:44:48;19.85;;;8.15;;
72301;SDS011;60235;52.234;5.186;2022-10-31T06:47:14;18.65;;;7.80;;
72301;SDS011;60235;52.234;5.186;2022-10-31T06:49:40;21.40;;;9.57;;
72301;SDS011;60235;52.234;5.186;2022-10-31T06:52:06;20.30;;;7.80;;
72301;SDS011;60235;52.234;5.186;2022-10-31T06:54:32;21.33;;;9.90;;
72301;SDS011;60235;52.234;5.186;2022-10-31T06:56:58;16.25;;;8.20;;
72301;SDS011;60235;52.234;5.186;2022-10-31T06:59:24;22.48;;;9.32;;
72301;SDS011;60235;52.234;5.186;2022-10-31T07:01:50;22.88;;;8.90;;
72301;SDS011;60235;52.234;5.186;2022-10-31T07:04:16;23.73;;;8.93;;
72301;SDS011;60235;52.234;5.186;2022-10-31T07:06:42;19.15;;;9.15;;
72301;SDS011;60235;52.234;5.186;2022-10-31T07:09:08;21.98;;;9.32;;
72301;SDS011;60235;52.234;5.186;2022-10-31T07:11:34;22.65;;;9.88;;
72301;SDS011;60235;52.234;5.186;2022-10-31T07:14:00;20.05;;;9.18;;
72301;SDS011;60235;52.234;5.186;2022-10-31T07:16:26;22.30;;;9.88;;
72301;SDS011;60235;52.234;5.186;2022-10-31T07:18:52;22.20;;;10.75;;
72301;SDS011;60235;52.234;5.186;2022-10-31T07:21:18;20.92;;;10.32;;
72301;SDS011;60235;52.234;5.186;2022-10-31T07:23:46;22.35;;;9.52;;
72301;SDS011;60235;52.234;5.186;2022-10-31T07:26:13;25.60;;;10.25;;
72301;SDS011;60235;52.234;5.186;2022-10-31T07:28:39;23.45;;;10.70;;
72301;SDS011;60235;52.234;5.186;2022-10-31T07:31:05;23.45;;;9.75;;
72301;SDS011;60235;52.234;5.186;2022-10-31T07:33:31;20.67;;;9.82;;
72301;SDS011;60235;52.234;5.186;2022-10-31T07:35:57;23.25;;;10.70;;
72301;SDS011;60235;52.234;5.186;2022-10-31T07:38:23;20.45;;;9.98;;
72301;SDS011;60235;52.234;5.186;2022-10-31T07:40:50;27.23;;;11.52;;
72301;SDS011;60235;52.234;5.186;2022-10-31T07:43:19;28.50;;;11.38;;
72301;SDS011;60235;52.234;5.186;2022-10-31T07:45:49;28.00;;;11.35;;
72301;SDS011;60235;52.234;5.186;2022-10-31T07:48:15;25.80;;;11.77;;
72301;SDS011;60235;52.234;5.186;2022-10-31T07:50:41;29.80;;;11.05;;
72301;SDS011;60235;52.234;5.186;2022-10-31T07:53:08;24.63;;;11.32;;
72301;SDS011;60235;52.234;5.186;2022-10-31T07:55:34;25.63;;;12.10;;
72301;SDS011;60235;52.234;5.186;2022-10-31T07:58:07;27.02;;;13.45;;
72301;SDS011;60235;52.234;5.186;2022-10-31T08:00:34;27.48;;;12.77;;
72301;SDS011;60235;52.234;5.186;2022-10-31T08:03:02;28.95;;;13.40;;
72301;SDS011;60235;52.234;5.186;2022-10-31T08:05:28;29.60;;;12.15;;
72301;SDS011;60235;52.234;5.186;2022-10-31T08:07:55;33.58;;;13.70;;
72301;SDS011;60235;52.234;5.186;2022-10-31T08:10:21;29.73;;;13.65;;
72301;SDS011;60235;52.234;5.186;2022-10-31T08:12:54;27.13;;;12.80;;
72301;SDS011;60235;52.234;5.186;2022-10-31T08:15:20;28.13;;;12.10;;
72301;SDS011;60235;52.234;5.186;2022-10-31T08:17:46;31.45;;;12.55;;
72301;SDS011;60235;52.234;5.186;2022-10-31T08:20:12;30.83;;;13.25;;
72301;SDS011;60235;52.234;5.186;2022-10-31T08:22:38;27.38;;;12.68;;
72301;SDS011;60235;52.234;5.186;2022-10-31T08:25:04;32.22;;;14.27;;
72301;SDS011;60235;52.234;5.186;2022-10-31T08:27:30;26.88;;;13.32;;
72301;SDS011;60235;52.234;5.186;2022-10-31T08:29:56;28.90;;;14.57;;
72301;SDS011;60235;52.234;5.186;2022-10-31T08:32:23;35.53;;;14.02;;
72301;SDS011;60235;52.234;5.186;2022-10-31T08:34:49;29.17;;;13.88;;
72301;SDS011;60235;52.234;5.186;2022-10-31T08:37:15;33.45;;;13.85;;
72301;SDS011;60235;52.234;5.186;2022-10-31T08:39:45;28.77;;;13.23;;
72301;SDS011;60235;52.234;5.186;2022-10-31T08:42:11;30.60;;;14.00;;
72301;SDS011;60235;52.234;5.186;2022-10-31T08:44:37;30.33;;;13.15;;
72301;SDS011;60235;52.234;5.186;2022-10-31T08:47:03;32.53;;;14.40;;
72301;SDS011;60235;52.234;5.186;2022-10-31T08:49:29;27.23;;;13.23;;
72301;SDS011;60235;52.234;5.186;2022-10-31T08:51:55;28.60;;;12.80;;
72301;SDS011;60235;52.234;5.186;2022-10-31T08:54:21;28.05;;;13.32;;
72301;SDS011;60235;52.234;5.186;2022-10-31T08:56:47;30.40;;;13.45;;
72301;SDS011;60235;52.234;5.186;2022-10-31T08:59:13;37.88;;;16.15;;
72301;SDS011;60235;52.234;5.186;2022-10-31T09:01:39;33.28;;;14.20;;
72301;SDS011;60235;52.234;5.186;2022-10-31T09:04:05;32.95;;;14.60;;
72301;SDS011;60235;52.234;5.186;2022-10-31T09:06:31;31.42;;;15.35;;
72301;SDS011;60235;52.234;5.186;2022-10-31T09:08:57;31.52;;;15.05;;
72301;SDS011;60235;52.234;5.186;2022-10-31T09:11:23;36.90;;;15.70;;
72301;SDS011;60235;52.234;5.186;2022-10-31T09:13:49;36.65;;;15.15;;
72301;SDS011;60235;52.234;5.186;2022-10-31T09:16:15;33.78;;;15.90;;
72301;SDS011;60235;52.234;5.186;2022-10-31T09:18:41;38.70;;;15.80;;
72301;SDS011;60235;52.234;5.186;2022-10-31T09:21:07;33.25;;;15.00;;
72301;SDS011;60235;52.234;5.186;2022-10-31T09:23:33;35.58;;;15.90;;
72301;SDS011;60235;52.234;5.186;2022-10-31T09:25:59;36.65;;;16.00;;
72301;SDS011;60235;52.234;5.186;2022-10-31T09:28:26;38.63;;;15.90;;
72301;SDS011;60235;52.234;5.186;2022-10-31T09:30:52;33.42;;;15.52;;
72301;SDS011;60235;52.234;5.186;2022-10-31T09:33:19;35.95;;;16.35;;
72301;SDS011;60235;52.234;5.186;2022-10-31T09:35:45;35.33;;;15.35;;
72301;SDS011;60235;52.234;5.186;2022-10-31T09:38:12;33.05;;;14.80;;
72301;SDS011;60235;52.234;5.186;2022-10-31T09:40:43;34.63;;;15.55;;
72301;SDS011;60235;52.234;5.186;2022-10-31T09:45:57;36.88;;;15.10;;
72301;SDS011;60235;52.234;5.186;2022-10-31T09:51:00;37.47;;;15.60;;
72301;SDS011;60235;52.234;5.186;2022-10-31T09:53:30;32.60;;;14.80;;
72301;SDS011;60235;52.234;5.186;2022-10-31T09:55:58;33.35;;;15.65;;
72301;SDS011;60235;52.234;5.186;2022-10-31T09:58:27;33.08;;;14.85;;
72301;SDS011;60235;52.234;5.186;2022-10-31T10:00:55;35.50;;;14.50;;
72301;SDS011;60235;52.234;5.186;2022-10-31T10:08:21;34.78;;;15.23;;
72301;SDS011;60235;52.234;5.186;2022-10-31T10:10:54;33.95;;;15.05;;
72301;SDS011;60235;52.234;5.186;2022-10-31T10:18:43;29.52;;;15.05;;
72301;SDS011;60235;52.234;5.186;2022-10-31T10:28:33;28.88;;;12.48;;
72301;SDS011;60235;52.234;5.186;2022-10-31T10:31:06;30.67;;;12.77;;
72301;SDS011;60235;52.234;5.186;2022-10-31T10:33:35;29.23;;;12.88;;
72301;SDS011;60235;52.234;5.186;2022-10-31T10:36:03;24.55;;;11.85;;
72301;SDS011;60235;52.234;5.186;2022-10-31T10:38:33;25.65;;;10.88;;
72301;SDS011;60235;52.234;5.186;2022-10-31T10:41:00;21.55;;;9.80;;
72301;SDS011;60235;52.234;5.186;2022-10-31T10:43:33;21.10;;;9.02;;
72301;SDS011;60235;52.234;5.186;2022-10-31T10:46:12;17.52;;;8.68;;
72301;SDS011;60235;52.234;5.186;2022-10-31T10:56:59;19.38;;;8.25;;
72301;SDS011;60235;52.234;5.186;2022-10-31T10:59:26;18.33;;;7.65;;
72301;SDS011;60235;52.234;5.186;2022-10-31T11:01:52;17.88;;;7.90;;
72301;SDS011;60235;52.234;5.186;2022-10-31T11:04:30;20.33;;;7.72;;
72301;SDS011;60235;52.234;5.186;2022-10-31T11:06:57;18.73;;;8.45;;
72301;SDS011;60235;52.234;5.186;2022-10-31T11:09:23;18.60;;;8.60;;
72301;SDS011;60235;52.234;5.186;2022-10-31T11:11:49;16.33;;;8.90;;
72301;SDS011;60235;52.234;5.186;2022-10-31T11:14:15;24.15;;;9.35;;
72301;SDS011;60235;52.234;5.186;2022-10-31T11:16:43;16.88;;;8.80;;
72301;SDS011;60235;52.234;5.186;2022-10-31T11:19:16;23.08;;;9.27;;
72301;SDS011;60235;52.234;5.186;2022-10-31T11:21:43;21.25;;;9.32;;
72301;SDS011;60235;52.234;5.186;2022-10-31T11:26:39;19.40;;;9.25;;
72301;SDS011;60235;52.234;5.186;2022-10-31T11:29:13;20.85;;;10.15;;
72301;SDS011;60235;52.234;5.186;2022-10-31T11:31:39;22.83;;;9.65;;
72301;SDS011;60235;52.234;5.186;2022-10-31T11:34:23;21.75;;;9.95;;
72301;SDS011;60235;52.234;5.186;2022-10-31T11:36:51;21.75;;;10.25;;
72301;SDS011;60235;52.234;5.186;2022-10-31T11:39:20;20.60;;;10.63;;
72301;SDS011;60235;52.234;5.186;2022-10-31T11:41:47;24.02;;;10.57;;
72301;SDS011;60235;52.234;5.186;2022-10-31T11:44:21;24.65;;;11.13;;
72301;SDS011;60235;52.234;5.186;2022-10-31T11:46:52;24.17;;;10.52;;
72301;SDS011;60235;52.234;5.186;2022-10-31T11:49:22;24.58;;;11.52;;
72301;SDS011;60235;52.234;5.186;2022-10-31T11:51:51;26.38;;;11.63;;
72301;SDS011;60235;52.234;5.186;2022-10-31T11:54:22;28.25;;;11.65;;
72301;SDS011;60235;52.234;5.186;2022-10-31T11:56:49;22.13;;;10.27;;
72301;SDS011;60235;52.234;5.186;2022-10-31T11:59:17;23.90;;;10.93;;
72301;SDS011;60235;52.234;5.186;2022-10-31T12:01:47;23.77;;;10.75;;
72301;SDS011;60235;52.234;5.186;2022-10-31T12:04:14;28.15;;;11.70;;
72301;SDS011;60235;52.234;5.186;2022-10-31T12:06:42;23.60;;;10.98;;
72301;SDS011;60235;52.234;5.186;2022-10-31T12:11:52;25.27;;;11.70;;
72301;SDS011;60235;52.234;5.186;2022-10-31T12:14:32;26.65;;;11.55;;
72301;SDS011;60235;52.234;5.186;2022-10-31T12:17:08;33.17;;;12.93;;
72301;SDS011;60235;52.234;5.186;2022-10-31T12:35:33;31.85;;;13.65;;
72301;SDS011;60235;52.234;5.186;2022-10-31T12:45:39;36.50;;;14.77;;
72301;SDS011;60235;52.234;5.186;2022-10-31T13:01:35;42.72;;;17.02;;
72301;SDS011;60235;52.234;5.186;2022-10-31T13:04:04;38.58;;;14.38;;
72301;SDS011;60235;52.234;5.186;2022-10-31T13:06:41;37.20;;;15.38;;
72301;SDS011;60235;52.234;5.186;2022-10-31T13:09:10;37.65;;;15.70;;
72301;SDS011;60235;52.234;5.186;2022-10-31T13:11:39;36.88;;;15.23;;
72301;SDS011;60235;52.234;5.186;2022-10-31T13:14:11;38.35;;;15.65;;
72301;SDS011;60235;52.234;5.186;2022-10-31T13:16:41;41.15;;;16.17;;
72301;SDS011;60235;52.234;5.186;2022-10-31T13:24:20;39.75;;;15.52;;
72301;SDS011;60235;52.234;5.186;2022-10-31T13:26:49;36.25;;;15.77;;
72301;SDS011;60235;52.234;5.186;2022-10-31T13:29:20;38.20;;;14.75;;
72301;SDS011;60235;52.234;5.186;2022-10-31T13:31:47;39.65;;;15.15;;
72301;SDS011;60235;52.234;5.186;2022-10-31T13:36:52;38.38;;;14.48;;
72301;SDS011;60235;52.234;5.186;2022-10-31T13:39:30;33.00;;;13.75;;
72301;SDS011;60235;52.234;5.186;2022-10-31T13:42:48;37.38;;;14.50;;
72301;SDS011;60235;52.234;5.186;2022-10-31T13:44:47;35.72;;;13.60;;
72301;SDS011;60235;52.234;5.186;2022-10-31T13:49:48;33.17;;;12.98;;
72301;SDS011;60235;52.234;5.186;2022-10-31T13:52:15;34.80;;;13.77;;
72301;SDS011;60235;52.234;5.186;2022-10-31T13:54:43;33.20;;;13.65;;
72301;SDS011;60235;52.234;5.186;2022-10-31T13:57:24;33.10;;;13.10;;
72301;SDS011;60235;52.234;5.186;2022-10-31T13:59:53;34.70;;;14.27;;
72301;SDS011;60235;52.234;5.186;2022-10-31T14:02:27;32.58;;;13.55;;
72301;SDS011;60235;52.234;5.186;2022-10-31T14:04:56;34.30;;;13.68;;
72301;SDS011;60235;52.234;5.186;2022-10-31T14:07:23;36.15;;;14.48;;
72301;SDS011;60235;52.234;5.186;2022-10-31T14:15:16;36.80;;;15.27;;
72301;SDS011;60235;52.234;5.186;2022-10-31T14:17:47;39.50;;;15.60;;
72301;SDS011;60235;52.234;5.186;2022-10-31T14:22:40;37.78;;;15.77;;
72301;SDS011;60235;52.234;5.186;2022-10-31T14:27:51;34.08;;;14.55;;
72301;SDS011;60235;52.234;5.186;2022-10-31T14:30:21;43.83;;;15.48;;
72301;SDS011;60235;52.234;5.186;2022-10-31T14:32:50;40.17;;;15.35;;
72301;SDS011;60235;52.234;5.186;2022-10-31T14:35:16;40.35;;;15.18;;
72301;SDS011;60235;52.234;5.186;2022-10-31T14:53:42;37.25;;;14.45;;
72301;SDS011;60235;52.234;5.186;2022-10-31T14:56:09;35.88;;;13.68;;
72301;SDS011;60235;52.234;5.186;2022-10-31T14:58:40;31.58;;;13.52;;
72301;SDS011;60235;52.234;5.186;2022-10-31T15:01:15;39.70;;;13.30;;
72301;SDS011;60235;52.234;5.186;2022-10-31T15:03:44;35.20;;;13.05;;
72301;SDS011;60235;52.234;5.186;2022-10-31T15:06:13;40.80;;;14.95;;
72301;SDS011;60235;52.234;5.186;2022-10-31T15:08:43;40.63;;;14.07;;
72301;SDS011;60235;52.234;5.186;2022-10-31T15:11:13;32.75;;;12.23;;
72301;SDS011;60235;52.234;5.186;2022-10-31T15:13:43;40.05;;;14.82;;
72301;SDS011;60235;52.234;5.186;2022-10-31T15:16:10;42.35;;;15.15;;
72301;SDS011;60235;52.234;5.186;2022-10-31T15:18:37;45.20;;;15.95;;
72301;SDS011;60235;52.234;5.186;2022-10-31T15:21:05;36.95;;;13.95;;
72301;SDS011;60235;52.234;5.186;2022-10-31T15:23:32;34.58;;;13.75;;
72301;SDS011;60235;52.234;5.186;2022-10-31T15:26:02;37.20;;;15.18;;
72301;SDS011;60235;52.234;5.186;2022-10-31T15:28:29;37.92;;;14.65;;
72301;SDS011;60235;52.234;5.186;2022-10-31T15:30:57;42.35;;;14.20;;
72301;SDS011;60235;52.234;5.186;2022-10-31T15:33:39;41.70;;;16.17;;
72301;SDS011;60235;52.234;5.186;2022-10-31T15:36:05;33.83;;;13.43;;
72301;SDS011;60235;52.234;5.186;2022-10-31T15:38:31;40.63;;;13.95;;
72301;SDS011;60235;52.234;5.186;2022-10-31T15:41:05;33.88;;;14.65;;
72301;SDS011;60235;52.234;5.186;2022-10-31T15:43:44;38.25;;;15.10;;
72301;SDS011;60235;52.234;5.186;2022-10-31T15:46:10;37.60;;;14.43;;
72301;SDS011;60235;52.234;5.186;2022-10-31T15:48:36;37.50;;;14.80;;
72301;SDS011;60235;52.234;5.186;2022-10-31T15:51:03;33.53;;;14.27;;
72301;SDS011;60235;52.234;5.186;2022-10-31T15:55:59;41.35;;;14.90;;
72301;SDS011;60235;52.234;5.186;2022-10-31T15:58:26;38.22;;;15.13;;
72301;SDS011;60235;52.234;5.186;2022-10-31T16:00:57;38.58;;;14.50;;
72301;SDS011;60235;52.234;5.186;2022-10-31T16:03:24;42.10;;;15.65;;
72301;SDS011;60235;52.234;5.186;2022-10-31T16:05:51;37.08;;;15.43;;
72301;SDS011;60235;52.234;5.186;2022-10-31T16:08:25;38.05;;;15.45;;
72301;SDS011;60235;52.234;5.186;2022-10-31T16:10:52;40.28;;;14.95;;
72301;SDS011;60235;52.234;5.186;2022-10-31T16:13:19;42.78;;;16.58;;
72301;SDS011;60235;52.234;5.186;2022-10-31T16:15:55;48.38;;;19.98;;
72301;SDS011;60235;52.234;5.186;2022-10-31T16:18:22;36.42;;;14.50;;
72301;SDS011;60235;52.234;5.186;2022-10-31T16:20:52;40.47;;;16.10;;
72301;SDS011;60235;52.234;5.186;2022-10-31T16:23:20;41.15;;;15.45;;
72301;SDS011;60235;52.234;5.186;2022-10-31T16:25:53;40.92;;;14.93;;
72301;SDS011;60235;52.234;5.186;2022-10-31T16:28:20;40.30;;;16.15;;
72301;SDS011;60235;52.234;5.186;2022-10-31T16:30:48;39.53;;;15.27;;
72301;SDS011;60235;52.234;5.186;2022-10-31T16:38:55;41.67;;;15.63;;
72301;SDS011;60235;52.234;5.186;2022-10-31T16:41:21;38.92;;;16.40;;
72301;SDS011;60235;52.234;5.186;2022-10-31T16:43:47;42.00;;;16.27;;
72301;SDS011;60235;52.234;5.186;2022-10-31T16:46:18;41.65;;;15.65;;
72301;SDS011;60235;52.234;5.186;2022-10-31T16:48:46;38.55;;;15.15;;
72301;SDS011;60235;52.234;5.186;2022-10-31T16:51:12;39.95;;;17.30;;
72301;SDS011;60235;52.234;5.186;2022-10-31T16:53:38;39.20;;;15.77;;
72301;SDS011;60235;52.234;5.186;2022-10-31T16:56:04;38.90;;;15.40;;
72301;SDS011;60235;52.234;5.186;2022-10-31T16:58:33;37.25;;;14.52;;
72301;SDS011;60235;52.234;5.186;2022-10-31T17:01:00;38.85;;;14.57;;